Uman, Ukraine
Current Conditions -  °F | °C
As of 7:00 AM on Friday 28 Nov 2014 (Local Time) from UKKK Reporting Station
Light Snow Light Snow  
Wind Chill: 19°   Ceiling: 4300
Heat Index: 25°   Visibility: 6mi
Dew Point: 18°   Wind: 4mph
Humidity: 74%   Direction: 80°E
Pressure: 30.33"   Gusts: NA
Location:  48.75°N, 30.22°E
Report Text: UKKK 280400Z 08002MPS 9999 -SN OVC043 M04/M08 Q1027 08810360 NOSIG
Loading
Personal Weather Stations






























Interactive Weather Map New forecast layout! Learn more

10-Day Weather Forecast

Advertisements
Track Severe Weather on mobile